createdAt,value
2018-11-27T00:00:22.975Z,19.27
2018-11-27T00:02:53.070Z,21.27
2018-11-27T00:05:21.748Z,20.03
2018-11-27T00:07:50.310Z,20.23
2018-11-27T00:10:19.184Z,20.93
2018-11-27T00:12:47.847Z,22.57
2018-11-27T00:15:16.470Z,20.87
2018-11-27T00:17:45.121Z,21.53
2018-11-27T00:20:14.554Z,20.80
2018-11-27T00:22:43.175Z,20.10
2018-11-27T00:25:16.368Z,21.27
2018-11-27T00:27:44.965Z,20.37
2018-11-27T00:30:16.017Z,20.40
2018-11-27T00:32:44.620Z,20.00
2018-11-27T00:35:14.312Z,18.53
2018-11-27T00:37:42.889Z,18.33
2018-11-27T00:40:16.039Z,17.53
2018-11-27T00:42:44.636Z,18.40
2018-11-27T00:45:14.554Z,19.17
2018-11-27T00:47:43.839Z,18.93
2018-11-27T00:50:14.625Z,20.03
2018-11-27T00:52:43.279Z,18.33
2018-11-27T00:55:14.178Z,16.77
2018-11-27T00:57:43.433Z,18.73
2018-11-27T01:00:21.022Z,18.17
2018-11-27T01:02:49.670Z,17.23
2018-11-27T01:05:20.786Z,16.77
2018-11-27T01:07:49.348Z,17.10
2018-11-27T01:10:20.119Z,17.37
2018-11-27T01:12:48.718Z,17.63
2018-11-27T01:15:17.408Z,16.57
2018-11-27T01:17:49.111Z,16.90
2018-11-27T01:20:19.796Z,16.33
2018-11-27T01:22:48.445Z,17.17
2018-11-27T01:25:17.163Z,17.93
2018-11-27T01:27:45.744Z,18.23
2018-11-27T01:30:15.567Z,18.40
2018-11-27T01:32:44.350Z,17.70
2018-11-27T01:35:14.781Z,20.03
2018-11-27T01:37:43.494Z,18.77
2018-11-27T01:40:19.231Z,17.40
2018-11-27T01:42:49.026Z,16.07
2018-11-27T01:45:18.849Z,17.70
2018-11-27T01:47:47.577Z,17.37
2018-11-27T01:50:17.168Z,18.40
2018-11-27T01:52:45.819Z,18.27
2018-11-27T01:55:15.484Z,18.13
2018-11-27T01:57:44.181Z,18.03
2018-11-27T02:00:32.363Z,18.93
2018-11-27T02:03:01.731Z,18.07
2018-11-27T02:05:31.055Z,18.10
2018-11-27T02:07:59.637Z,17.20
2018-11-27T02:10:28.238Z,17.43
2018-11-27T02:13:01.254Z,18.63
2018-11-27T02:15:28.423Z,17.50
2018-11-27T02:17:57.084Z,17.77
2018-11-27T02:20:25.735Z,21.27
2018-11-27T02:22:54.339Z,19.53
2018-11-27T02:25:27.245Z,18.93
2018-11-27T02:27:55.896Z,18.27
2018-11-27T02:30:25.502Z,17.87
2018-11-27T02:32:54.098Z,16.40
2018-11-27T02:35:24.701Z,18.13
2018-11-27T02:37:54.302Z,16.77
2018-11-27T02:40:23.189Z,18.87
2018-11-27T02:42:51.795Z,18.37
2018-11-27T02:45:22.403Z,17.63
2018-11-27T02:47:51.814Z,17.77
2018-11-27T02:50:21.644Z,17.30
2018-11-27T02:52:50.261Z,18.30
2018-11-27T02:55:21.838Z,17.10
2018-11-27T02:57:50.468Z,17.97
2018-11-27T03:00:21.262Z,16.50
2018-11-27T03:02:49.914Z,17.97
2018-11-27T03:05:22.576Z,19.17
2018-11-27T03:07:51.228Z,17.60
2018-11-27T03:10:19.915Z,18.50
2018-11-27T03:12:48.528Z,18.17
2018-11-27T03:15:17.910Z,17.97
2018-11-27T03:17:46.542Z,17.67
2018-11-27T03:20:16.507Z,18.40
2018-11-27T03:22:45.176Z,18.10
2018-11-27T03:25:16.756Z,18.17
2018-11-27T03:27:46.123Z,18.23
2018-11-27T03:30:16.090Z,18.73
2018-11-27T03:32:44.687Z,19.93
2018-11-27T03:35:14.394Z,18.13
2018-11-27T03:37:43.178Z,18.93
2018-11-27T03:40:14.208Z,18.87
2018-11-27T03:42:42.844Z,19.47
2018-11-27T03:45:13.525Z,18.67
2018-11-27T03:47:42.089Z,17.27
2018-11-27T03:50:17.758Z,19.37
2018-11-27T03:52:46.371Z,19.80
2018-11-27T03:55:15.267Z,17.77
2018-11-27T03:57:43.907Z,18.47
2018-11-27T04:00:21.129Z,17.67
2018-11-27T04:02:52.116Z,18.37
2018-11-27T04:05:20.887Z,19.23
2018-11-27T04:07:49.511Z,18.27
2018-11-27T04:10:19.311Z,17.60
2018-11-27T04:12:47.887Z,18.50
2018-11-27T04:15:16.772Z,18.47
2018-11-27T04:17:45.344Z,16.17
2018-11-27T04:20:14.392Z,17.57
2018-11-27T04:22:43.692Z,17.43
2018-11-27T04:25:16.437Z,17.10
2018-11-27T04:27:45.669Z,18.90
2018-11-27T04:30:16.763Z,18.03
2018-11-27T04:32:45.449Z,17.97
2018-11-27T04:35:16.728Z,17.63
2018-11-27T04:37:45.395Z,17.70
2018-11-27T04:40:17.895Z,16.93
2018-11-27T04:42:46.570Z,17.77
2018-11-27T04:45:16.530Z,18.47
2018-11-27T04:47:45.187Z,17.77
2018-11-27T04:50:14.773Z,20.00
2018-11-27T04:52:43.617Z,19.27
2018-11-27T04:55:17.052Z,19.50
2018-11-27T04:57:46.605Z,17.77
2018-11-27T05:00:16.475Z,19.50
2018-11-27T05:02:48.148Z,19.53
2018-11-27T05:05:17.416Z,18.23
2018-11-27T05:07:46.184Z,17.23
2018-11-27T05:10:17.108Z,18.17
2018-11-27T05:12:45.767Z,17.87
2018-11-27T05:15:16.706Z,18.27
2018-11-27T05:17:48.043Z,17.50
2018-11-27T05:20:14.962Z,17.40
2018-11-27T05:22:43.590Z,18.50
2018-11-27T05:25:15.222Z,17.80
2018-11-27T05:27:46.106Z,17.97
2018-11-27T05:30:16.844Z,18.03
2018-11-27T05:32:45.542Z,17.20
2018-11-27T05:35:16.079Z,17.93
2018-11-27T05:37:45.944Z,17.47
2018-11-27T05:40:16.064Z,18.50
2018-11-27T05:42:44.828Z,15.93
2018-11-27T05:45:16.725Z,16.57
2018-11-27T05:47:45.388Z,16.43
2018-11-27T05:50:15.277Z,16.30
2018-11-27T05:52:43.948Z,16.83
2018-11-27T05:55:13.395Z,17.13
2018-11-27T05:57:42.419Z,16.57
2018-11-27T06:00:19.386Z,17.17
2018-11-27T06:02:49.084Z,17.87
2018-11-27T06:05:20.591Z,17.17
2018-11-27T06:07:49.251Z,17.43
2018-11-27T06:10:18.857Z,17.10
2018-11-27T06:12:47.522Z,15.60
2018-11-27T06:15:17.421Z,18.27
2018-11-27T06:17:47.073Z,18.30
2018-11-27T06:20:19.012Z,18.33
2018-11-27T06:22:47.592Z,17.00
2018-11-27T06:25:26.979Z,17.60
2018-11-27T06:27:59.843Z,15.73
2018-11-27T06:30:29.464Z,16.47
2018-11-27T06:32:58.190Z,15.80
2018-11-27T06:35:30.236Z,15.43
2018-11-27T06:37:58.916Z,16.03
2018-11-27T06:40:29.011Z,18.50
2018-11-27T06:42:58.021Z,17.17
2018-11-27T06:45:26.740Z,19.43
2018-11-27T06:47:55.329Z,17.50
2018-11-27T06:50:24.315Z,17.10
2018-11-27T06:52:52.952Z,17.57
2018-11-27T06:55:22.769Z,16.43
2018-11-27T06:57:51.459Z,17.00
2018-11-27T07:00:22.403Z,16.97
2018-11-27T07:02:51.017Z,17.00
2018-11-27T07:05:19.933Z,17.60
2018-11-27T07:07:48.634Z,17.00
2018-11-27T07:10:20.692Z,18.10
2018-11-27T07:12:50.526Z,18.43
2018-11-27T07:15:20.557Z,17.90
2018-11-27T07:17:49.185Z,17.57
2018-11-27T07:20:18.004Z,17.70
2018-11-27T07:22:46.649Z,19.43
2018-11-27T07:25:16.059Z,19.53
2018-11-27T07:27:46.810Z,17.37
2018-11-27T07:30:17.663Z,17.80
2018-11-27T07:32:46.346Z,17.30
2018-11-27T07:35:15.612Z,16.70
2018-11-27T07:37:44.273Z,17.40
2018-11-27T07:40:16.983Z,18.60
2018-11-27T07:42:45.734Z,17.40
2018-11-27T07:45:17.350Z,17.40
2018-11-27T07:47:46.052Z,18.20
2018-11-27T07:50:15.628Z,18.43
2018-11-27T07:52:44.214Z,17.60
2018-11-27T07:55:16.954Z,16.17
2018-11-27T07:57:45.684Z,18.17
2018-11-27T08:00:22.662Z,16.90
2018-11-27T08:02:52.267Z,17.63
2018-11-27T08:05:29.536Z,15.93
2018-11-27T08:07:58.301Z,15.93
2018-11-27T08:10:28.163Z,15.37
2018-11-27T08:12:56.808Z,15.33
2018-11-27T08:15:26.707Z,15.77
2018-11-27T08:17:55.346Z,15.63
2018-11-27T08:20:28.233Z,16.43
2018-11-27T08:22:56.803Z,15.33
2018-11-27T08:25:25.409Z,14.03
2018-11-27T08:27:54.001Z,15.37
2018-11-27T08:30:23.469Z,14.30
2018-11-27T08:32:52.746Z,12.83
2018-11-27T08:35:23.508Z,11.87
2018-11-27T08:37:53.160Z,12.97
2018-11-27T08:40:23.097Z,12.73
2018-11-27T08:42:51.793Z,14.10
2018-11-27T08:45:21.586Z,14.97
2018-11-27T08:47:51.139Z,14.60
2018-11-27T08:50:21.002Z,14.23
2018-11-27T08:52:50.876Z,16.03
2018-11-27T08:55:29.570Z,15.93
2018-11-27T08:57:58.470Z,15.87
2018-11-27T09:00:27.287Z,14.03
2018-11-27T09:02:55.910Z,14.30
2018-11-27T09:05:24.714Z,13.10
2018-11-27T09:07:53.398Z,13.63
2018-11-27T09:10:23.356Z,15.97
2018-11-27T09:12:52.053Z,14.80
2018-11-27T09:15:21.871Z,15.80
2018-11-27T09:18:24.755Z,16.13
2018-11-27T09:20:53.633Z,15.17
2018-11-27T09:23:22.244Z,16.07
2018-11-27T09:25:50.867Z,15.10
2018-11-27T09:28:19.523Z,14.27
2018-11-27T09:30:48.378Z,15.20
2018-11-27T09:33:17.013Z,15.67
2018-11-27T09:35:45.682Z,14.00
2018-11-27T09:38:14.299Z,16.63
2018-11-27T09:40:43.047Z,14.43
2018-11-27T09:43:11.675Z,15.30
2018-11-27T09:45:41.741Z,15.43
2018-11-27T09:48:10.326Z,15.13
2018-11-27T09:50:39.140Z,14.30
2018-11-27T09:53:10.008Z,14.53
2018-11-27T09:55:38.654Z,14.53
2018-11-27T09:58:07.525Z,15.37
2018-11-27T10:00:36.311Z,15.77
2018-11-27T10:03:10.992Z,16.60
2018-11-27T10:05:39.727Z,15.63
2018-11-27T10:08:09.012Z,15.67
2018-11-27T10:10:37.712Z,12.90
2018-11-27T10:13:07.342Z,12.33
2018-11-27T10:15:35.936Z,12.50
2018-11-27T10:18:04.556Z,13.07
2018-11-27T10:20:35.484Z,12.33
2018-11-27T10:23:04.717Z,12.87
2018-11-27T10:25:33.368Z,13.43
2018-11-27T10:28:02.038Z,12.50
2018-11-27T10:30:30.665Z,13.00
2018-11-27T10:32:59.533Z,12.83
2018-11-27T10:35:31.445Z,11.50
2018-11-27T10:38:00.006Z,11.90
2018-11-27T10:40:28.823Z,11.27
2018-11-27T10:42:57.462Z,13.03
2018-11-27T10:45:26.253Z,12.07
2018-11-27T10:47:55.725Z,12.03
2018-11-27T10:50:24.478Z,16.57
2018-11-27T10:52:56.409Z,14.77
2018-11-27T10:55:26.033Z,12.50
2018-11-27T10:57:54.680Z,14.17
2018-11-27T11:00:30.403Z,12.47
2018-11-27T11:03:07.645Z,12.93
2018-11-27T11:05:37.382Z,14.03
2018-11-27T11:08:06.358Z,14.20
2018-11-27T11:10:34.987Z,14.57
2018-11-27T11:13:03.497Z,15.27
2018-11-27T11:15:34.418Z,14.17
2018-11-27T11:18:04.237Z,14.67
2018-11-27T11:20:32.922Z,13.80
2018-11-27T11:23:01.458Z,13.33
2018-11-27T11:25:30.026Z,11.37
2018-11-27T11:27:59.297Z,11.07
2018-11-27T11:30:28.114Z,11.13
2018-11-27T11:32:56.756Z,11.10
2018-11-27T11:35:25.326Z,10.73
2018-11-27T11:37:54.445Z,12.13
2018-11-27T11:40:24.599Z,11.73
2018-11-27T11:42:56.278Z,10.47
2018-11-27T11:45:25.341Z,10.03
2018-11-27T11:47:54.255Z,9.53
2018-11-27T11:50:27.005Z,9.47
2018-11-27T11:53:13.115Z,9.13
2018-11-27T11:55:42.321Z,8.13
2018-11-27T11:58:10.965Z,9.97
2018-11-27T12:00:44.082Z,9.57
2018-11-27T12:03:12.714Z,9.63
2018-11-27T12:05:42.085Z,9.37
2018-11-27T12:08:10.663Z,9.27
2018-11-27T12:10:39.275Z,8.60
2018-11-27T12:13:09.324Z,9.37
2018-11-27T12:15:39.029Z,9.30
2018-11-27T12:18:08.701Z,10.17
2018-11-27T12:20:37.728Z,9.97
2018-11-27T12:23:07.954Z,11.23
2018-11-27T12:25:36.738Z,10.63
2018-11-27T12:28:06.023Z,11.20
2018-11-27T12:30:34.734Z,10.27
2018-11-27T12:33:03.371Z,9.27
2018-11-27T12:35:32.184Z,9.53
2018-11-27T12:38:00.868Z,9.83
2018-11-27T12:40:29.882Z,9.63
2018-11-27T12:42:58.741Z,11.57
2018-11-27T12:45:29.212Z,9.07
2018-11-27T12:47:58.881Z,9.20
2018-11-27T12:50:39.737Z,9.67
2018-11-27T12:53:09.623Z,9.53
2018-11-27T12:55:39.883Z,9.37
2018-11-27T12:58:08.583Z,11.07
2018-11-27T13:00:37.527Z,10.67
2018-11-27T13:03:06.335Z,11.00
2018-11-27T13:05:38.227Z,8.97
2018-11-27T13:08:17.874Z,9.77
2018-11-27T13:10:46.741Z,9.80
2018-11-27T13:13:15.362Z,9.03
2018-11-27T13:15:44.707Z,10.17
2018-11-27T13:18:13.390Z,9.60
2018-11-27T13:20:42.287Z,10.97
2018-11-27T13:23:10.884Z,8.67
2018-11-27T13:25:39.934Z,8.47
2018-11-27T13:28:10.093Z,7.53
2018-11-27T13:30:47.043Z,6.93
2018-11-27T13:33:21.541Z,7.70
2018-11-27T13:35:50.429Z,7.47
2018-11-27T13:38:19.059Z,8.60
2018-11-27T13:40:47.670Z,8.30
2018-11-27T13:43:22.454Z,8.53
2018-11-27T13:45:51.102Z,9.20
2018-11-27T13:48:19.722Z,8.33
2018-11-27T13:50:48.314Z,6.73
2018-11-27T13:53:16.924Z,7.63
2018-11-27T13:55:45.624Z,7.43
2018-11-27T13:58:14.170Z,6.57
2018-11-27T14:00:43.116Z,7.03
2018-11-27T14:03:11.745Z,7.23
2018-11-27T14:05:40.505Z,7.73
2018-11-27T14:08:09.978Z,6.63
2018-11-27T14:10:39.150Z,6.70
2018-11-27T14:13:08.700Z,7.03
2018-11-27T14:15:37.850Z,7.90
2018-11-27T14:18:07.001Z,6.80
2018-11-27T14:20:35.772Z,6.60
2018-11-27T14:23:04.530Z,7.50
2018-11-27T14:25:33.175Z,8.07
2018-11-27T14:28:01.735Z,7.00
2018-11-27T14:30:30.579Z,7.87
2018-11-27T14:32:59.154Z,7.47
2018-11-27T14:35:27.905Z,7.83
2018-11-27T14:37:56.634Z,7.87
2018-11-27T14:40:26.650Z,7.80
2018-11-27T14:42:56.261Z,7.67
2018-11-27T14:45:26.216Z,8.63
2018-11-27T14:47:57.113Z,10.30
2018-11-27T14:50:26.249Z,8.07
2018-11-27T14:52:54.904Z,9.37
2018-11-27T14:55:26.939Z,10.23
2018-11-27T14:57:55.649Z,10.50
2018-11-27T15:00:25.080Z,8.30
2018-11-27T15:02:54.025Z,9.63
2018-11-27T15:05:34.012Z,10.13
2018-11-27T15:08:03.120Z,11.70
2018-11-27T15:10:31.803Z,11.23
2018-11-27T15:13:00.424Z,17.20
2018-11-27T15:15:29.020Z,13.53
2018-11-27T15:17:57.584Z,14.83
2018-11-27T15:20:26.473Z,10.67
2018-11-27T15:22:55.065Z,11.83
2018-11-27T15:25:24.065Z,10.63
2018-11-27T15:27:52.688Z,11.43
2018-11-27T15:30:24.502Z,11.07
2018-11-27T15:32:54.513Z,11.13
2018-11-27T15:35:23.322Z,13.87
2018-11-27T15:37:51.947Z,15.73
2018-11-27T15:40:22.297Z,17.47
2018-11-27T15:42:51.275Z,17.80
2018-11-27T15:45:21.346Z,18.33
2018-11-27T15:47:50.198Z,18.60
2018-11-27T15:50:19.072Z,17.63
2018-11-27T15:52:47.928Z,17.87
2018-11-27T15:55:18.748Z,18.30
2018-11-27T15:57:48.801Z,17.27
2018-11-27T16:00:18.749Z,16.60
2018-11-27T16:02:47.515Z,18.23
2018-11-27T16:05:16.720Z,17.70
2018-11-27T16:07:45.695Z,19.00
2018-11-27T16:10:15.717Z,19.63
2018-11-27T16:12:44.415Z,21.10
2018-11-27T16:15:16.064Z,20.77
2018-11-27T16:17:44.652Z,22.03
2018-11-27T16:20:18.788Z,23.40
2018-11-27T16:22:48.496Z,21.63
2018-11-27T16:25:18.363Z,22.63
2018-11-27T16:27:47.148Z,22.67
2018-11-27T16:30:23.308Z,24.00
2018-11-27T16:32:52.100Z,22.43
2018-11-27T16:35:20.974Z,24.47
2018-11-27T16:37:50.915Z,22.97
2018-11-27T16:40:23.902Z,22.47
2018-11-27T16:42:52.462Z,19.23
2018-11-27T16:45:22.343Z,17.33
2018-11-27T16:47:51.343Z,18.40
2018-11-27T16:50:20.451Z,26.80
2018-11-27T16:52:49.459Z,26.03
2018-11-27T16:55:22.097Z,25.37
2018-11-27T16:57:50.665Z,25.30
2018-11-27T17:00:27.936Z,31.47
2018-11-27T17:02:58.565Z,31.53
2018-11-27T17:05:28.895Z,24.20
2018-11-27T17:07:57.607Z,25.70
2018-11-27T17:10:26.503Z,22.70
2018-11-27T17:12:56.592Z,22.63
2018-11-27T17:15:26.507Z,21.97
2018-11-27T17:17:55.230Z,22.50
2018-11-27T17:20:33.970Z,22.00
2018-11-27T17:23:05.477Z,23.40
2018-11-27T17:25:34.327Z,24.70
2018-11-27T17:28:04.895Z,26.23
2018-11-27T17:30:53.606Z,25.47
2018-11-27T17:33:26.950Z,26.77
2018-11-27T17:35:56.066Z,27.30
2018-11-27T17:38:24.976Z,29.23
2018-11-27T17:40:53.898Z,29.60
2018-11-27T17:43:22.881Z,29.50
2018-11-27T17:45:52.121Z,31.70
2018-11-27T17:48:21.005Z,30.70
2018-11-27T17:50:50.191Z,29.83
2018-11-27T17:53:18.994Z,30.30
2018-11-27T17:55:48.081Z,30.97
2018-11-27T17:58:22.635Z,32.83
2018-11-27T18:00:46.049Z,32.73
2018-11-27T18:03:14.735Z,35.23
2018-11-27T18:05:43.876Z,35.07
2018-11-27T18:08:12.623Z,35.43
2018-11-27T18:10:41.604Z,37.27
2018-11-27T18:13:10.470Z,36.83
2018-11-27T18:15:39.330Z,34.47
2018-11-27T18:18:08.358Z,33.43
2018-11-27T18:20:37.386Z,32.50
2018-11-27T18:23:06.327Z,33.47
2018-11-27T18:25:35.149Z,32.43
2018-11-27T18:28:03.961Z,32.03
2018-11-27T18:30:32.769Z,34.10
2018-11-27T18:33:01.518Z,31.83
2018-11-27T18:35:30.921Z,33.80
2018-11-27T18:37:59.970Z,32.70
2018-11-27T18:40:29.730Z,34.50
2018-11-27T18:42:58.781Z,37.57
2018-11-27T18:45:30.925Z,34.93
2018-11-27T18:47:59.893Z,35.37
2018-11-27T18:50:30.634Z,37.80
2018-11-27T18:52:59.579Z,36.30
2018-11-27T18:55:28.616Z,37.43
2018-11-27T18:57:59.027Z,38.07
2018-11-27T19:00:29.190Z,37.43
2018-11-27T19:02:58.570Z,36.10
2018-11-27T19:05:27.256Z,37.20
2018-11-27T19:07:56.489Z,37.43
2018-11-27T19:10:27.585Z,36.90
2018-11-27T19:12:56.587Z,36.37
2018-11-27T19:15:40.861Z,40.07
2018-11-27T19:18:13.659Z,39.43
2018-11-27T19:20:42.338Z,43.17
2018-11-27T19:23:11.032Z,44.30
2018-11-27T19:25:39.679Z,41.57
2018-11-27T19:28:09.008Z,42.20
2018-11-27T19:30:37.735Z,39.97
2018-11-27T19:33:06.792Z,40.03
2018-11-27T19:35:35.642Z,40.90
2018-11-27T19:38:04.800Z,44.40
2018-11-27T19:40:33.709Z,44.23
2018-11-27T19:43:02.578Z,41.43
2018-11-27T19:45:31.291Z,40.03
2018-11-27T19:47:59.923Z,40.70
2018-11-27T19:50:28.853Z,43.33
2018-11-27T19:52:57.779Z,45.23
2018-11-27T19:55:26.442Z,47.00
2018-11-27T19:57:55.143Z,45.43
2018-11-27T20:00:26.218Z,45.50
2018-11-27T20:02:55.122Z,47.43
2018-11-27T20:05:25.096Z,49.10
2018-11-27T20:07:54.171Z,50.13
2018-11-27T20:10:23.722Z,50.63
2018-11-27T20:12:52.618Z,54.90
2018-11-27T20:15:26.707Z,53.97
2018-11-27T20:17:55.840Z,57.07
2018-11-27T20:20:25.649Z,52.47
2018-11-27T20:22:55.303Z,50.50
2018-11-27T20:25:24.791Z,56.93
2018-11-27T20:27:53.864Z,55.33
2018-11-27T20:30:25.550Z,55.30
2018-11-27T20:32:56.555Z,55.77
2018-11-27T20:35:25.316Z,50.00
2018-11-27T20:37:54.731Z,51.23
2018-11-27T20:40:23.396Z,47.80
2018-11-27T20:42:52.073Z,46.80
2018-11-27T20:45:21.959Z,46.23
2018-11-27T20:47:53.165Z,42.70
2018-11-27T20:50:22.914Z,44.10
2018-11-27T20:52:51.797Z,43.03
2018-11-27T20:55:21.124Z,43.27
2018-11-27T20:57:54.259Z,43.50
2018-11-27T21:00:31.726Z,44.33
2018-11-27T21:03:01.355Z,43.10
2018-11-27T21:05:30.427Z,44.90
2018-11-27T21:07:59.329Z,44.97
2018-11-27T21:10:28.229Z,41.47
2018-11-27T21:12:56.959Z,46.43
2018-11-27T21:15:25.868Z,44.00
2018-11-27T21:17:54.687Z,44.93
2018-11-27T21:20:23.372Z,47.60
2018-11-27T21:22:52.255Z,47.13
2018-11-27T21:25:22.310Z,48.13
2018-11-27T21:28:01.653Z,46.33
2018-11-27T21:30:30.543Z,47.63
2018-11-27T21:32:59.415Z,47.17
2018-11-27T21:35:28.302Z,46.60
2018-11-27T21:37:57.037Z,48.07
2018-11-27T21:40:26.082Z,47.30
2018-11-27T21:42:54.828Z,49.00
2018-11-27T21:45:25.136Z,50.60
2018-11-27T21:47:54.684Z,49.30
2018-11-27T21:50:29.196Z,52.00
2018-11-27T21:52:58.856Z,54.80
2018-11-27T21:55:27.785Z,52.07
2018-11-27T21:57:56.515Z,51.43
2018-11-27T22:00:26.159Z,51.80
2018-11-27T22:02:55.249Z,53.03
2018-11-27T22:05:24.153Z,51.33
2018-11-27T22:07:53.125Z,51.60
2018-11-27T22:10:23.245Z,50.53
2018-11-27T22:12:55.156Z,51.03
2018-11-27T22:15:27.974Z,48.80
2018-11-27T22:17:56.811Z,50.17
2018-11-27T22:20:25.823Z,50.70
2018-11-27T22:22:54.539Z,51.90
2018-11-27T22:25:23.403Z,51.50
2018-11-27T22:27:52.310Z,51.87
2018-11-27T22:30:21.324Z,55.20
2018-11-27T22:32:51.214Z,56.40
2018-11-27T22:35:20.102Z,53.37
2018-11-27T22:37:48.765Z,62.87
2018-11-27T22:40:19.533Z,59.90
2018-11-27T22:42:48.676Z,64.97
2018-11-27T22:45:21.571Z,63.13
2018-11-27T22:47:50.165Z,61.27
2018-11-27T22:50:19.368Z,60.57
2018-11-27T22:52:48.020Z,60.87
2018-11-27T22:55:16.873Z,56.50
2018-11-27T22:57:45.475Z,52.00
2018-11-27T23:00:19.409Z,51.73
2018-11-27T23:02:48.057Z,50.30
2018-11-27T23:05:17.591Z,50.20
2018-11-27T23:07:46.251Z,51.63
2018-11-27T23:10:15.295Z,50.60
2018-11-27T23:12:44.969Z,50.30
2018-11-27T23:15:14.929Z,51.03
2018-11-27T23:17:43.947Z,50.07
2018-11-27T23:20:16.699Z,51.30
2018-11-27T23:22:45.332Z,48.27
2018-11-27T23:25:16.936Z,49.20
2018-11-27T23:27:45.504Z,48.77
2018-11-27T23:30:17.332Z,47.37
2018-11-27T23:32:45.936Z,46.97
2018-11-27T23:35:14.645Z,45.57
2018-11-27T23:37:43.286Z,42.13
2018-11-27T23:40:13.075Z,44.97
2018-11-27T23:42:42.098Z,43.97
2018-11-27T23:45:13.072Z,44.17
2018-11-27T23:47:41.665Z,41.33
2018-11-27T23:50:13.264Z,41.67
2018-11-27T23:52:42.169Z,43.40
2018-11-27T23:55:12.090Z,40.93
2018-11-27T23:57:41.117Z,42.70
